Hovedside
METAR-TAF:

METAR-TAF

Lufthavner :

Vidsel, Sverige

breddegrad: 65-52N, lengdegrad: 020-08E, høyde over havet: 180 m

Gjeldene værobservasjon

Denne rapporten ble laget for 12 minutter siden, klokken 08:20 UTC
Vind 2 kt fra Vest
Temperatur -20°C
Luftfuktighet 84%
Trykk 1014 hPa
Sikt: 6000 m
Spredte skyer i en høyde av 500 ft
Brutte skyer i en høyde av 5300 ft
lett snø

METAR: ESPE 220820Z 28002KT 6000 2300// -SN SCT005 BKN053 M20/M22 Q1014

Tid: 09:32 (08:32 UTC)

Varsel

Denne rapporten ble laget for 2 timer og 2 minutter siden, klokken 06:30 UTC
Varsel gyldig fra 22. klokken 07 UTC til 22. klokken 15 UTC
Vind 2 kt fra skiftende retning
Sikt: 8000 m
Spredte skyer i en høyde av 800 ft
Brutte skyer i en høyde av 3000 ft
lett snø
Midlertidig
fra 22. klokken 07 UTC til 22. klokken 15 UTC
Sikt: 1500 m
i en høyde av 800 ft
snø

TAF: ESPE 220630Z 2207/2215 VRB02KT 8000 -SN SCT008 BKN030 TEMPO 2207/2215 1500 SN VV008 RMK MIL

Værobservasjoner og værvarsel for over 4000 flyplasser (METAR- og TAF-rapporter).

Tilgjengelige stasjoner er representert av de røde og gule prikkene på kartet.

Hold musepekeren over prikken for å se navnet på stasjonen.

Klikk så for å se værobservasjoner og -varsler.

For å forandre kartet kan du klikke på den grønne knappen med svart kryss for å zoome inn, på den grønne knappen med strek for å zoome ut, eller på de grønne pilene for å se tilstøtende kart.


METAR-TAF: